CCGS Amundsen — CGDT — position and weather

sailwx.info

Track history (hours):
 
Tides and Currents Weather Stations Pressure Air Temp Water Temp Dewpoint Dewpoint Depression Visibility Wind Speed Wind Dir Waves Ship Positions

Oceanographic research ship CCGS Amundsen (Canada)

Detailed information on ship capabilities available from ARCUS's ALIAS (Arctic Logistics Information and Support) project.

Last reported at 2018-Dec-10 03:00 UTC. Time now 2018-Dec-10 03:58 UTC.
Position N 48°18' W 070°12'.

Length 98.3 m; beam 19.5 m; draft 7.3 m.

Type: SAR. MMSI: 316050000.

Wind from 280 at 17 knots

Barometer 1016.6 mb
Air temperature -12.0 ° C
Dewpoint -13.7 ° C
Water temperature -0.0 ° C

Date/timePositionNaut miles runAvg speedWind from/ knotsBaromVisibWave heightAir tempDewpointWater temp
2018-Dec-10 03:00N 48°18' W 070°12'8 8.0 280 / 171016.6 -12.0-13.7-0.0
2018-Dec-10 02:00N 48°18' W 070°00'8 8.0 310 / 41016.4 -12.4-14.2-0.0
2018-Dec-10 01:00N 48°18' W 070°12'1313.4 300 / 31016.4 -11.5-13.5 0.1
2018-Dec-10 00:00N 48°24' W 070°30'8 8.0 110 / 81016.1 -11.3-12.9 0.1
2018-Dec-09 23:00N 48°24' W 070°42'4 4.0 100 / 121015.6 -11.0-12.6 0.2
2018-Dec-09 22:00N 48°24' W 070°48'8 8.0 080 / 121015.9 -11.2-13.0 0.2
2018-Dec-09 21:00N 48°24' W 070°36'1313.4 100 / 121016.0 -11.3-13.5 0.1
2018-Dec-09 20:00N 48°18' W 070°18'4 4.0 120 / 71016.7 -11.8-14.2 0.1
2018-Dec-09 19:00N 48°18' W 070°12'0 0.0 120 / 71017.7 -12.3-14.5 0.3
2018-Dec-09 18:00N 48°18' W 070°12'0 0.0 100 / 71019.3 -13.4-15.8
2018-Dec-09 17:00N 48°18' W 070°12'0 0.0 100 / 71021.0 -14.2-17.2
2018-Dec-09 16:00N 48°18' W 070°12'0 0.0 100 / 71022.9 -14.8-18.3
2018-Dec-09 15:00N 48°18' W 070°12'0 0.0 210 / 41025.1 -16.2-19.1
2018-Dec-09 14:00N 48°18' W 070°12'0 0.0 230 / 61026.1 -17.2-20.6
2018-Dec-09 13:00N 48°18' W 070°12'0 0.0 230 / 71026.9 -17.8-21.1
2018-Dec-09 12:00N 48°18' W 070°12'0 0.0 220 / 71027.1 -18.5-21.6
2018-Dec-09 11:00N 48°18' W 070°12'0 0.0 230 / 51027.7 -18.3-21.6 0.4
2018-Dec-09 10:00N 48°18' W 070°12'0 0.0 220 / 41028.2 -18.3-21.0
2018-Dec-09 09:00N 48°18' W 070°12'1313.4 310 / 81028.5 -17.2-20.7
2018-Dec-09 08:00N 48°12' W 069°54'7 7.2 310 / 211028.1 -16.0-19.6 0.1
2018-Dec-09 07:00N 48°06' W 069°48'1313.4 320 / 221028.6 -15.1-18.6 0.9
2018-Dec-09 06:00N 48°12' W 069°30'1212.0 300 / 211028.3 -14.0-17.8 1.0
2018-Dec-09 05:00N 48°12' W 069°12'0 0.0 300 / 161028.4 -13.2-17.4
2018-Dec-09 04:00N 48°12' W 069°12'0 0.0 300 / 111028.7 -12.6-18.2
2018-Dec-09 03:00N 48°12' W 069°12'0 0.0 320 / 131028.8 -12.1-19.2
2018-Dec-09 02:00N 48°12' W 069°12'0 0.0 300 / 171028.3 -12.5-17.0
2018-Dec-09 01:00N 48°12' W 069°12'0 0.0 300 / 161028.1 -12.3-17.2
2018-Dec-09 00:00N 48°12' W 069°12'0 0.0 290 / 151027.9 -12.4-16.1
2018-Dec-08 23:00N 48°12' W 069°12'0 0.0 300 / 111027.5 -12.8-16.1
2018-Dec-08 22:00N 48°12' W 069°12'0 0.0 300 / 121027.6 -12.9-16.2
2018-Dec-08 21:00N 48°12' W 069°12'0 0.0 290 / 191027.3 -13.2-16.9
2018-Dec-08 20:00N 48°12' W 069°12'0 0.0 280 / 181027.5 -13.2-17.2
2018-Dec-08 19:00N 48°12' W 069°12'0 0.0 280 / 131027.6 -13.2-18.2
2018-Dec-08 18:00N 48°12' W 069°12'0 0.0 280 / 111028.1 -13.8-18.2
2018-Dec-08 17:00N 48°12' W 069°12'0 0.0 280 / 101028.7 -14.1-18.4
2018-Dec-08 16:00N 48°12' W 069°12'0 0.0 290 / 111029.4 -14.4-19.0
2018-Dec-08 15:00N 48°12' W 069°12'0 0.0 300 / 151029.8 -14.4-18.6
2018-Dec-08 14:00N 48°12' W 069°12'0 0.0 310 / 171029.7 -14.3-18.3
2018-Dec-08 13:00N 48°12' W 069°12'0 0.0 310 / 171029.1 -14.0-17.2
2018-Dec-08 12:00N 48°12' W 069°12'0 0.0 310 / 151028.8 -13.8-17.3
2018-Dec-08 11:00N 48°12' W 069°12'0 0.0 310 / 151028.5 -13.5-17.6
2018-Dec-08 10:00N 48°12' W 069°12'0 0.0 320 / 151028.5 -13.1-17.9
2018-Dec-08 09:00N 48°12' W 069°12'0 0.0 320 / 171028.3 -12.8-17.8
2018-Dec-08 08:00N 48°12' W 069°12'0 0.0 320 / 161028.2 -12.5-17.9
2018-Dec-08 07:00N 48°12' W 069°12'0 0.0 320 / 161028.1 -12.3-17.3
2018-Dec-08 06:00N 48°12' W 069°12'0 0.0 330 / 161027.8 -11.9-17.1
2018-Dec-08 05:00N 48°12' W 069°12'0 0.0 320 / 161027.4 -11.7-17.2
2018-Dec-08 04:00N 48°12' W 069°12'0 0.0 310 / 161027.4 -11.1-16.1
2018-Dec-08 03:00N 48°12' W 069°12'0 0.0 310 / 151027.3 -10.8-16.0
2018-Dec-08 02:00N 48°12' W 069°12'0 0.0 310 / 161027.2 -10.5-15.7
2018-Dec-08 01:00N 48°12' W 069°12'0 0.0 290 / 151026.9 -10.3-14.6
2018-Dec-08 00:00N 48°12' W 069°12'0 0.0 290 / 181026.5 -10.2-14.3
2018-Dec-07 23:00N 48°12' W 069°12'0 0.0 300 / 171025.7 -9.5-15.6
2018-Dec-07 21:00N 48°12' W 069°12'0 0.0 310 / 221022.8 -8.2-12.3 1.2
2018-Dec-07 20:00N 48°12' W 069°12'0 0.0 300 / 221021.9 -7.9-11.7 1.2
2018-Dec-07 19:00N 48°12' W 069°12'1010.0 300 / 211021.0 -7.4-11.1 1.2
2018-Dec-07 18:00N 48°06' W 069°24'1010.0 280 / 261020.3 -7.8-11.3 1.0
2018-Dec-07 17:00N 48°00' W 069°36'7 7.2 310 / 271019.6 -7.8-12.1 0.4
2018-Dec-07 16:00N 47°54' W 069°30'0 0.0 340 / 31020.4 -6.3-9.5
2018-Dec-07 15:00N 47°54' W 069°30'0 0.0 330 / 81019.9 -6.0-9.0
2018-Dec-07 14:00N 47°54' W 069°30'0 0.0 330 / 91019.0 -5.7-8.3
2018-Dec-07 13:00N 47°54' W 069°30'0 0.0 330 / 71018.1 -5.0-7.3
2018-Dec-07 12:00N 47°54' W 069°30'0 0.0 330 / 101017.1 -3.8-4.6
2018-Dec-07 11:00N 47°54' W 069°30'0 0.0 060 / 21016.3 -5.3-5.7
2018-Dec-07 10:00N 47°54' W 069°30'0 0.0 160 / 31015.5 -4.8-5.4
2018-Dec-07 09:00N 47°54' W 069°30'0 0.0 140 / 31015.0 -5.0-5.9
2018-Dec-07 08:00N 47°54' W 069°30'0 0.0 150 / 51014.7 -5.1-6.4
2018-Dec-07 07:00N 47°54' W 069°30'0 0.0 150 / 61014.3 -5.3-6.9
2018-Dec-07 06:00N 47°54' W 069°30'0 0.0 170 / 81013.9 -4.9-6.1
2018-Dec-07 05:00N 47°54' W 069°30'0 0.0 170 / 71013.7 -4.2-5.5
2018-Dec-07 04:00N 47°54' W 069°30'0 0.0 210 / 131013.5 -3.5-4.7
2018-Dec-07 03:00N 47°54' W 069°30'0 0.0 220 / 131013.6 -3.4-4.1
2018-Dec-07 02:00N 47°54' W 069°30'0 0.0 180 / 81013.8 -4.3-5.3
2018-Dec-07 01:00N 47°54' W 069°30'0 0.0 190 / 91013.8 -4.0-5.1
2018-Dec-07 00:00N 47°54' W 069°30'0 0.0 180 / 81013.7 -4.6-6.0
2018-Dec-06 23:00N 47°54' W 069°30'0 0.0 180 / 91013.4 -4.8-6.3
2018-Dec-06 22:00N 47°54' W 069°30'0 0.0 180 / 91013.2 -5.0-6.1
2018-Dec-06 21:00N 47°54' W 069°30'0 0.0 190 / 121013.1 -4.9-6.4
2018-Dec-06 20:00N 47°54' W 069°30'0 0.0 170 / 81012.8 -5.5-7.1
2018-Dec-06 19:00N 47°54' W 069°30'0 0.0 190 / 111012.7 -5.7-7.4
2018-Dec-06 18:00N 47°54' W 069°30'0 0.0 190 / 121013.1 -5.7-7.9
2018-Dec-06 17:00N 47°54' W 069°30'0 0.0 180 / 111013.6 -6.3-8.8
2018-Dec-06 16:00N 47°54' W 069°30'0 0.0 190 / 131014.7 -6.5-8.8
2018-Dec-06 15:00N 47°54' W 069°30'0 0.0 150 / 71015.9 -8.1-11.2
2018-Dec-06 14:00N 47°54' W 069°30'0 0.0 170 / 71016.3 -8.6-11.5
2018-Dec-06 13:00N 47°54' W 069°30'0 0.0 170 / 81016.5 -8.6-11.5
2018-Dec-06 12:00N 47°54' W 069°30'0 0.0 170 / 101016.6 -9.2-12.1
2018-Dec-06 11:00N 47°54' W 069°30'0 0.0 160 / 61016.6 -9.3-11.9
2018-Dec-06 10:00N 47°54' W 069°30'0 0.0 170 / 81016.9 -8.7-11.1
2018-Dec-06 09:00N 47°54' W 069°30'0 0.0 170 / 91017.1 -8.9-11.0
2018-Dec-06 08:00N 47°54' W 069°30'0 0.0 190 / 111016.9 -7.9-10.1
2018-Dec-06 07:00N 47°54' W 069°30'0 0.0 160 / 71016.8 -8.9-11.3
2018-Dec-06 06:00N 47°54' W 069°30'0 0.0 140 / 71016.4 -9.0-11.4
2018-Dec-06 05:00N 47°54' W 069°30'0 0.0 150 / 71017.0 -8.6-11.2
2018-Dec-06 04:00N 47°54' W 069°30'0 0.0 140 / 71017.7 -9.2-11.9
2018-Dec-06 03:00N 47°54' W 069°30'0 0.0 140 / 71018.2 -9.1-12.1
2018-Dec-06 02:00N 47°54' W 069°30'0 0.0 150 / 51018.3 -8.8-11.8
2018-Dec-06 01:00N 47°54' W 069°30'0 0.0 170 / 81018.4 -7.9-11.2
2018-Dec-06 00:00N 47°54' W 069°30'0 0.0 180 / 101018.2 -7.0-10.5
2018-Dec-05 23:00N 47°54' W 069°30'0 0.0 170 / 81017.6 -7.7-10.8
2018-Dec-05 22:00N 47°54' W 069°30'0 0.0 170 / 91017.4 -7.1-10.9
2018-Dec-05 21:00N 47°54' W 069°30'0 0.0 180 / 101017.2 -6.6-10.8
2018-Dec-05 20:00N 47°54' W 069°30'0 0.0 180 / 101017.1 -5.7-10.2
2018-Dec-05 19:00N 47°54' W 069°30'0 0.0 200 / 111016.8 -5.4-10.6
2018-Dec-05 18:00N 47°54' W 069°30'0 0.0 200 / 71017.1 -5.5-11.2
2018-Dec-05 17:00N 47°54' W 069°30'0 0.0 230 / 61017.7 -5.6-11.7
2018-Dec-05 16:00N 47°54' W 069°30'0 0.0 310 / 21018.2 -5.2-11.2
2018-Dec-05 15:00N 47°54' W 069°30'0 0.0 290 / 51018.7 -6.4-11.8
2018-Dec-05 14:00N 47°54' W 069°30'0 0.0 340 / 21018.4 -6.5-11.1
2018-Dec-05 13:00N 47°54' W 069°30'0 0.0 320 / 41018.2 -6.7-11.6
2018-Dec-05 12:00N 47°54' W 069°30'0 0.0 330 / 31017.9 -7.2-11.6
2018-Dec-05 11:00N 47°54' W 069°30'0 0.0 320 / 31017.2 -6.6-11.1
2018-Dec-05 10:00N 47°54' W 069°30'0 0.0 320 / 41016.8 -6.5-11.3
2018-Dec-05 09:00N 47°54' W 069°30'0 0.0 300 / 61016.5 -6.1-10.7
2018-Dec-05 08:00N 47°54' W 069°30'0 0.0 330 / 31016.0 -5.7-11.3
2018-Dec-05 07:00N 47°54' W 069°30'0 0.0 330 / 31015.8 -5.6-11.9
2018-Dec-05 06:00N 47°54' W 069°30'0 0.0 330 / 21015.2 -5.4-10.8
2018-Dec-05 05:00N 47°54' W 069°30'0 0.0 340 / 31014.8 -5.3-10.8
2018-Dec-05 04:00N 47°54' W 069°30'0 0.0 330 / 31014.5 -5.3-10.6
2018-Dec-05 03:00N 47°54' W 069°30'0 0.0 340 / 41014.4 -5.4-11.2
2018-Dec-05 02:00N 47°54' W 069°30'0 0.0 330 / 51014.4 -5.4-11.7
2018-Dec-05 01:00N 47°54' W 069°30'0 0.0 330 / 91014.1 -5.5-12.4
2018-Dec-05 00:00N 47°54' W 069°30'0 0.0 330 / 101013.6 -5.7-13.1
2018-Dec-04 23:00N 47°54' W 069°30'0 0.0 330 / 81012.8 -5.8-12.6
2018-Dec-04 22:00N 47°54' W 069°30'17 8.5 330 / 81012.0 -5.5-12.2
2018-Dec-04 20:00N 47°42' W 069°48'1717.1 310 / 151010.8 -6.1-14.0 0.8
2018-Dec-04 19:00N 47°30' W 070°06'1010.1 300 / 211010.2 -6.0-14.2 1.0
2018-Dec-04 18:00N 47°24' W 070°18'1010.1 290 / 121010.4 -5.8-14.0 1.1
2018-Dec-04 17:00N 47°18' W 070°30'7 7.3 320 / 121010.4 -5.3-14.6 1.1
2018-Dec-04 16:00N 47°12' W 070°36'2019.8 320 / 81011.3 -5.4-14.2 1.9
2018-Dec-04 15:00N 46°54' W 070°48'1415.0 280 / 121012.2 -5.5-13.4 2.7
2018-Dec-04 14:04N 46°50' W 071°08'114.2
2018-Dec-04 14:00N 46°50' W 071°09'3358.8
2018-Dec-04 14:00N 46°48' W 071°12'0 0.9 290 / 181011.9 -5.4-12.5 2.7
2018-Dec-04 13:29N 46°48' W 071°12'0 0.9
2018-Dec-04 13:00N 46°48' W 071°12'0 0.9 030 / 61011.2 -4.2-10.7
2018-Dec-04 12:29N 46°48' W 071°12'0 0.9
2018-Dec-04 12:00N 46°48' W 071°12'0 0.9 190 / 21010.3 -4.5-9.4
2018-Dec-04 11:29N 46°48' W 071°12'0 0.9
2018-Dec-04 11:00N 46°48' W 071°12'057.2 140 / 21009.4 -4.1-8.5
2018-Dec-04 10:59N 46°48' W 071°12'0 0.4
2018-Dec-04 10:00N 46°48' W 071°12'047.1 130 / 11008.5 -3.9-8.0
2018-Dec-04 09:59N 46°48' W 071°12'0 0.4
2018-Dec-04 09:00N 46°48' W 071°12'027.1 200 / 51007.8 -3.4-7.7
2018-Dec-04 08:59N 46°48' W 071°12'0 0.5
2018-Dec-04 08:00N 46°48' W 071°12'0 6.1 200 / 41007.3 -3.1-7.8
2018-Dec-04 07:55N 46°48' W 071°12'0 0.0
2018-Dec-04 07:28N 46°48' W 071°12'0 0.9
2018-Dec-04 07:00N 46°48' W 071°12'0 0.0 210 / 31006.5 -2.7-7.5
2018-Dec-04 06:00N 46°48' W 071°12'0 0.6 040 / 41005.7 -2.6-7.2
2018-Dec-04 05:16N 46°48' W 071°12'0 1.6
2018-Dec-04 05:00N 46°48' W 071°12'0 2.0 030 / 61005.1 -1.8-6.1
2018-Dec-04 04:46N 46°48' W 071°12'0 0.6
2018-Dec-04 04:00N 46°48' W 071°12'019.5 150 / 21004.5 -1.2-5.1
2018-Dec-04 03:58N 46°48' W 071°12'0 0.5
2018-Dec-04 03:00N 46°48' W 071°12'015.4 210 / 61004.0 -1.4-5.1
2018-Dec-04 02:58N 46°48' W 071°12'0 0.0
2018-Dec-04 02:15N 46°48' W 071°12'0 1.7
2018-Dec-04 02:00N 46°48' W 071°12'0 0.7 210 / 61003.8 -1.5-5.9
2018-Dec-04 01:21N 46°48' W 071°12'0 1.2
2018-Dec-04 01:00N 46°48' W 071°12'0 0.0 200 / 51003.5 -2.1-6.0
2018-Dec-04 00:00N 46°48' W 071°12'0 0.0 020 / 61002.7 -2.3-5.6
2018-Dec-03 23:00N 46°48' W 071°12'0 0.0 040 / 41001.4 -2.0-5.2
2018-Dec-03 22:00N 46°48' W 071°12'0 3.0 030 / 61000.3 -0.6-3.1
2018-Dec-03 21:51N 46°48' W 071°12'0 0.0
2018-Dec-03 21:09N 46°48' W 071°12'0 2.9
2018-Dec-03 21:00N 46°48' W 071°12'0 0.6 030 / 3999.0 -0.4-0.5
2018-Dec-03 20:17N 46°48' W 071°12'0 1.5
2018-Dec-03 20:00N 46°48' W 071°12'0 1.5 030 / 2998.1 -0.4-0.5
2018-Dec-03 19:41N 46°48' W 071°12'0 0.6
2018-Dec-03 19:00N 46°48' W 071°12'0 2.1 030 / 1997.5 -0.1-0.2
2018-Dec-03 18:47N 46°48' W 071°12'0 0.6
2018-Dec-03 18:00N 46°48' W 071°12'0 0.5 030 / 4997.3 -0.3-0.4
2018-Dec-03 17:02N 46°48' W 071°12'012.5
2018-Dec-03 17:00N 46°48' W 071°12'0 1.7 030 / 5997.4 -0.2-0.3
2018-Dec-03 16:44N 46°48' W 071°12'0 0.6
2018-Dec-03 16:00N 46°48' W 071°12'0 0.9 040 / 5997.5 -0.1-0.1
2018-Dec-03 15:28N 46°48' W 071°12'0 0.9
2018-Dec-03 15:00N 46°48' W 071°12'0 0.0 030 / 4997.5 -0.2-0.2
2018-Dec-03 14:00N 46°48' W 071°12'0 0.8 997.3 -0.4-0.4
2018-Dec-03 13:28N 46°48' W 071°12'0 0.9
2018-Dec-03 13:00N 46°48' W 071°12'0 0.0 996.5 -0.5-0.5
2018-Dec-03 12:00N 46°48' W 071°12'0 0.0 996.8 -0.7-0.7
2018-Dec-03 11:00N 46°48' W 071°12'0 0.0 997.2 -0.8-0.8
2018-Dec-03 10:00N 46°48' W 071°12'0 0.7 997.8 -0.7-0.7
2018-Dec-03 09:21N 46°48' W 071°12'0 1.3
2018-Dec-03 09:00N 46°48' W 071°12'0 0.7 998.0 -0.8-0.8
2018-Dec-03 08:24N 46°48' W 071°12'0 1.1
2018-Dec-03 08:00N 46°48' W 071°12'0 0.8 998.2 -0.7-0.8
2018-Dec-03 07:26N 46°48' W 071°12'0 1.0
2018-Dec-03 07:00N 46°48' W 071°12'0 0.0 998.6 -0.6-0.7
2018-Dec-03 06:00N 46°48' W 071°12'0 0.6 030 / 1999.2 -0.6-0.6
2018-Dec-03 05:11N 46°48' W 071°12'0 2.3
2018-Dec-03 05:00N 46°48' W 071°12'0 0.0 040 / 2999.6 -0.6-0.7
2018-Dec-03 04:00N 46°48' W 071°12'0 0.0 040 / 21000.3 -0.6-0.7
2018-Dec-03 03:00N 46°48' W 071°12'0 0.7 040 / 31001.0 -0.6-0.7
2018-Dec-03 02:20N 46°48' W 071°12'0 1.3
2018-Dec-03 02:00N 46°48' W 071°12'0 0.7 040 / 31001.7 -0.7-0.8
2018-Dec-03 01:23N 46°48' W 071°12'0 1.1
2018-Dec-03 01:00N 46°48' W 071°12'030.8 040 / 31002.3 -0.5-0.7
2018-Dec-03 00:59N 46°48' W 071°12'0 0.0
2018-Dec-03 00:25N 46°48' W 071°12'0 1.0
2018-Dec-03 00:00N 46°48' W 071°12'0 0.8 040 / 71003.4 -0.7-1.0
2018-Dec-02 23:25N 46°48' W 071°12'0 1.0
2018-Dec-02 23:00N 46°48' W 071°12'0 1.1 040 / 61004.6 -0.6-1.2
2018-Dec-02 22:34N 46°48' W 071°12'0 0.8
2018-Dec-02 22:00N 46°48' W 071°12'0 2.0 040 / 51005.8 -0.6-1.0
2018-Dec-02 21:46N 46°48' W 071°12'0 0.0
2018-Dec-02 21:28N 46°48' W 071°12'0 0.9
2018-Dec-02 21:00N 46°48' W 071°12'0 2.0 040 / 61006.2 -0.8-1.3
2018-Dec-02 20:46N 46°48' W 071°12'0 0.0
2018-Dec-02 20:25N 46°48' W 071°12'0 1.1
2018-Dec-02 20:00N 46°48' W 071°12'0 0.0 040 / 61007.1 -1.0-1.4
2018-Dec-02 19:00N 46°48' W 071°12'0 1.9 040 / 141008.5 -1.3-2.0
2018-Dec-02 18:46N 46°48' W 071°12'0 0.6
2018-Dec-02 18:00N 46°48' W 071°12'0 0.6 040 / 161010.4 -1.3-2.0
2018-Dec-02 17:12N 46°48' W 071°12'0 2.1
2018-Dec-02 17:00N 46°48' W 071°12'0 5.2 040 / 161012.8 -1.7-2.4
2018-Dec-02 16:54N 46°48' W 071°12'0 0.0
2018-Dec-02 16:12N 46°48' W 071°12'0 2.1
2018-Dec-02 16:00N 46°48' W 071°12'0 2.3 040 / 151015.0 -1.8-2.5
2018-Dec-02 15:48N 46°48' W 071°12'0 0.0
2018-Dec-02 15:12N 46°48' W 071°12'0 2.1
2018-Dec-02 15:00N 46°48' W 071°12'0 1.0 040 / 121016.8 -1.8-2.6
2018-Dec-02 14:33N 46°48' W 071°12'0 0.0
2018-Dec-02 14:27N 46°48' W 071°12'0 1.0
2018-Dec-02 14:00N 46°48' W 071°12'0 0.6 040 / 151017.8 -1.9-3.0
2018-Dec-02 13:15N 46°48' W 071°12'0 1.8
2018-Dec-02 13:00N 46°48' W 071°12'0 9.1 040 / 121018.9 -1.9-3.6
2018-Dec-02 12:57N 46°48' W 071°12'0 0.0
2018-Dec-02 12:17N 46°48' W 071°12'0 1.5
2018-Dec-02 12:00N 46°48' W 071°12'0 2.1 040 / 131019.7 -1.7-4.0
2018-Dec-02 11:47N 46°48' W 071°12'0 0.0
2018-Dec-02 11:14N 46°48' W 071°12'0 1.9
2018-Dec-02 11:00N 46°48' W 071°12'0 1.7 050 / 71020.6 -1.9-4.0
2018-Dec-02 10:44N 46°48' W 071°12'0 0.0
2018-Dec-02 10:26N 46°48' W 071°12'0 1.0
2018-Dec-02 10:00N 46°48' W 071°12'0 2.0 050 / 61021.2 -2.1-4.5
2018-Dec-02 09:46N 46°48' W 071°12'0 0.0
2018-Dec-02 09:16N 46°48' W 071°12'0 1.6
2018-Dec-02 09:00N 46°48' W 071°12'0 5.8 100 / 31021.5 -2.1-4.2
2018-Dec-02 08:55N 46°48' W 071°12'0 0.0
2018-Dec-02 08:22N 46°48' W 071°12'0 1.2
2018-Dec-02 08:00N 46°48' W 071°12'014.2 080 / 41021.7 -2.1-4.1
2018-Dec-02 07:58N 46°48' W 071°12'0 0.0
2018-Dec-02 07:01N 46°48' W 071°12'023.9
2018-Dec-02 07:00N 46°48' W 071°12'0 0.9 100 / 51022.0 -2.0-4.0
2018-Dec-02 06:31N 46°48' W 071°12'0 0.0
2018-Dec-02 06:28N 46°48' W 071°12'0 0.9
2018-Dec-02 06:00N 46°48' W 071°12'0 0.8 120 / 41022.4 -1.8-4.2
2018-Dec-02 05:27N 46°48' W 071°12'0 1.0
2018-Dec-02 05:00N 46°48' W 071°12'012.2 130 / 41022.8 -1.6-4.0
2018-Dec-02 04:57N 46°48' W 071°12'0 0.5
2018-Dec-02 04:00N 46°48' W 071°12'0 1.6 150 / 51022.9 -1.4-4.0
2018-Dec-02 03:42N 46°48' W 071°12'0 0.6
2018-Dec-02 03:00N 46°48' W 071°12'0 0.5 220 / 41023.5 -0.9-3.6
2018-Dec-02 02:03N 46°48' W 071°12'0 7.5
2018-Dec-02 02:00N 46°48' W 071°12'0 3.1 230 / 51024.1 -0.9-3.5
2018-Dec-02 01:51N 46°48' W 071°12'0 0.0
2018-Dec-02 01:03N 46°48' W 071°12'0 0.0
2018-Dec-02 01:00N 46°48' W 071°12'049.9
2018-Dec-02 01:00N 46°48' W 071°12'0 0.8 210 / 41024.1 -0.8-3.5
2018-Dec-02 00:27N 46°48' W 071°12'0 1.0
2018-Dec-02 00:00N 46°48' W 071°12'0 1.3 210 / 41024.1 -0.8-3.5
2018-Dec-01 23:39N 46°48' W 071°12'0 0.0
2018-Dec-01 23:30N 46°48' W 071°12'0 0.9
2018-Dec-01 23:00N 46°48' W 071°12'0 0.0 220 / 51024.1 -0.7-3.9
2018-Dec-01 22:00N 46°48' W 071°12'0 1.5 210 / 41023.7 -0.7-4.2
2018-Dec-01 21:41N 46°48' W 071°12'0 0.0
2018-Dec-01 21:23N 46°48' W 071°12'0 1.1
2018-Dec-01 21:00N 46°48' W 071°12'0 8.0 220 / 61023.4 -0.8-4.6
2018-Dec-01 20:56N 46°48' W 071°12'0 0.0
2018-Dec-01 20:26N 46°48' W 071°12'0 0.0
2018-Dec-01 19:26N 46°48' W 071°12'0 1.0
2018-Dec-01 19:00N 46°48' W 071°12'0 1.3 210 / 71021.8 -0.4-5.0
2018-Dec-01 18:38N 46°48' W 071°12'0 0.0
2018-Dec-01 18:30N 46°48' W 071°12'0 0.9
2018-Dec-01 18:00N 46°48' W 071°12'0 0.7 210 / 61021.7 -1.0-5.1
2018-Dec-01 17:21N 46°48' W 071°12'0 1.3
2018-Dec-01 17:00N 46°48' W 071°12'0 1.1 200 / 61022.1 -1.2-5.1
2018-Dec-01 16:36N 46°48' W 071°12'0 0.0
2018-Dec-01 16:30N 46°48' W 071°12'0 0.9
2018-Dec-01 16:00N 46°48' W 071°12'0177.8 200 / 61022.7 -1.4-5.3
2018-Dec-01 15:59N 46°48' W 071°12'0 0.4
2018-Dec-01 15:00N 46°48' W 071°12'0 2.8 200 / 71023.5 -1.6-5.4
2018-Dec-01 14:50N 46°48' W 071°12'0 0.0
2018-Dec-01 14:23N 46°48' W 071°12'0 1.1
2018-Dec-01 14:00N 46°48' W 071°12'0 1.0 200 / 71023.6 -1.8-5.6
2018-Dec-01 13:32N 46°48' W 071°12'0 0.8
2018-Dec-01 13:00N 46°48' W 071°12'0 0.5 190 / 31022.3 -1.9-6.1
2018-Dec-01 12:08N 46°48' W 071°12'0 3.2
2018-Dec-01 12:00N 46°48' W 071°12'0 2.7 210 / 21021.4 -1.8-5.4
2018-Dec-01 11:50N 46°48' W 071°12'0 0.0
2018-Dec-01 11:26N 46°48' W 071°12'0 1.0
2018-Dec-01 11:00N 46°48' W 071°12'0 3.9 200 / 41020.9 -1.9-5.5
2018-Dec-01 10:53N 46°48' W 071°12'0 0.0
2018-Dec-01 10:26N 46°48' W 071°12'0 1.0
2018-Dec-01 10:00N 46°48' W 071°12'0 0.8 190 / 41020.6 -2.0-6.2
2018-Dec-01 09:26N 46°48' W 071°12'0 1.0
2018-Dec-01 09:00N 46°48' W 071°12'0 6.7 190 / 41020.3 -2.0-6.3
2018-Dec-01 08:56N 46°48' W 071°12'0 0.0
2018-Dec-01 08:19N 46°48' W 071°12'0 1.3
2018-Dec-01 08:00N 46°48' W 071°12'0 0.5 190 / 41019.9 -2.0-6.2
2018-Dec-01 07:10N 46°48' W 071°12'0 2.5
2018-Dec-01 07:00N 46°48' W 071°12'0 1.1 190 / 41019.7 -2.0-6.1
2018-Dec-01 06:34N 46°48' W 071°12'0 0.0
2018-Dec-01 06:07N 46°48' W 071°12'0 3.5
2018-Dec-01 06:00N 46°48' W 071°12'0 0.7 190 / 41019.3 -1.8-5.8
2018-Dec-01 05:22N 46°48' W 071°12'0 1.2
2018-Dec-01 05:00N 46°48' W 071°12'0 1.6 190 / 51019.0 -1.5-5.7
2018-Dec-01 04:43N 46°48' W 071°12'0 0.6
2018-Dec-01 04:00N 46°48' W 071°12'0 0.9 210 / 41018.7 -1.2-5.6
2018-Dec-01 03:31N 46°48' W 071°12'0 0.0
2018-Dec-01 03:28N 46°48' W 071°12'0 0.9
2018-Dec-01 03:00N 46°48' W 071°12'016.3 160 / 11018.4 -1.3-5.6
2018-Dec-01 02:58N 46°48' W 071°12'0 0.0
2018-Dec-01 02:25N 46°48' W 071°12'0 1.1
2018-Dec-01 02:00N 46°48' W 071°12'015.0 190 / 51018.4 -1.2-5.4
2018-Dec-01 01:58N 46°48' W 071°12'0 0.5
2018-Dec-01 01:00N 46°48' W 071°12'0 2.4 190 / 41018.5 -0.8-5.3
2018-Dec-01 00:48N 46°48' W 071°12'0 0.2
2018-Nov-30 23:00N 46°48' W 071°12'0 9.0 190 / 71017.9 -0.8-4.7 2.2
2018-Nov-30 22:57N 46°48' W 071°12'0 0.0
2018-Nov-30 22:23N 46°48' W 071°12'0 1.1
2018-Nov-30 22:00N 46°48' W 071°12'0 0.8 200 / 51017.7 -0.7-4.6 2.2
2018-Nov-30 21:26N 46°48' W 071°12'0 1.0
2018-Nov-30 21:00N 46°48' W 071°12'0 5.3 220 / 61017.4 -0.6-4.6 2.2
2018-Nov-30 20:54N 46°48' W 071°12'0 0.1
2018-Nov-30 20:30N 46°48' W 071°12'4 8.2
2018-Nov-30 20:00N 46°48' W 071°06'346.5 260 / 101016.4 -0.4-4.4 2.1
2018-Nov-30 19:56N 46°51' W 071°08'1011.0
2018-Nov-30 19:00N 46°54' W 070°54'1514.5 240 / 131015.9 -0.4-4.8 1.8
2018-Nov-30 18:00N 47°06' W 070°42'7 7.3 250 / 61016.1 -1.0-4.0 1.2
2018-Nov-30 17:00N 47°12' W 070°36'7 7.3 090 / 21016.2 -1.8-4.0 1.1
2018-Nov-30 16:00N 47°06' W 070°42'1514.5 190 / 31016.5 -1.3-4.4 1.7
2018-Nov-30 15:00N 46°54' W 070°54'1011.6 240 / 21016.8 -1.3-4.4 2.2
2018-Nov-30 14:07N 46°50' W 071°08'431.0
2018-Nov-30 14:00N 46°48' W 071°12'3172.6 310 / 41016.8 -2.7-6.5 2.1
2018-Nov-30 13:59N 46°50' W 071°10'2 2.0
2018-Nov-30 12:47N 46°48' W 071°12'0 0.6
2018-Nov-30 12:00N 46°48' W 071°12'0 1.3 350 / 41016.3 -2.5-6.0
2018-Nov-30 11:37N 46°48' W 071°12'0 0.0
2018-Nov-30 11:19N 46°48' W 071°12'0 0.0
2018-Nov-30 10:52N 46°48' W 071°12'0 0.0
2018-Nov-30 10:25N 46°48' W 071°12'0 0.0
2018-Nov-30 09:52N 46°48' W 071°12'0 0.0
2018-Nov-30 09:13N 46°48' W 071°12'0 0.0
2018-Nov-30 07:58N 46°48' W 071°12'0 0.2
2018-Nov-30 06:00N 46°48' W 071°12'   340 / 51013.4 -0.4-3.9
Track history (hours):
 
Tides and Currents Weather Stations Pressure Air Temp Water Temp Dewpoint Dewpoint Depression Visibility Wind Speed Wind Dir Waves Ship Positions

Oceanographic research ship CCGS Amundsen (Canada)

Detailed information on ship capabilities available from ARCUS's ALIAS (Arctic Logistics Information and Support) project.

Last reported at 2018-Dec-10 03:00 UTC. Time now 2018-Dec-10 03:58 UTC.
Position N 48°18' W 070°12'.

Length 98.3 m; beam 19.5 m; draft 7.3 m.

Type: SAR. MMSI: 316050000.

Wind from 280 at 17 knots

Barometer 1016.6 mb
Air temperature -12.0 ° C
Dewpoint -13.7 ° C
Water temperature -0.0 ° C

Date/timePositionNaut miles runAvg speedWind from/ knotsBaromVisibWave heightAir tempDewpointWater temp
2018-Dec-10 03:00N 48°18' W 070°12'8 8.0 280 / 171016.6 -12.0-13.7-0.0
2018-Dec-10 02:00N 48°18' W 070°00'8 8.0 310 / 41016.4 -12.4-14.2-0.0
2018-Dec-10 01:00N 48°18' W 070°12'1313.4 300 / 31016.4 -11.5-13.5 0.1
2018-Dec-10 00:00N 48°24' W 070°30'8 8.0 110 / 81016.1 -11.3-12.9 0.1
2018-Dec-09 23:00N 48°24' W 070°42'4 4.0 100 / 121015.6 -11.0-12.6 0.2
2018-Dec-09 22:00N 48°24' W 070°48'8 8.0 080 / 121015.9 -11.2-13.0 0.2
2018-Dec-09 21:00N 48°24' W 070°36'1313.4 100 / 121016.0 -11.3-13.5 0.1
2018-Dec-09 20:00N 48°18' W 070°18'4 4.0 120 / 71016.7 -11.8-14.2 0.1
2018-Dec-09 19:00N 48°18' W 070°12'0 0.0 120 / 71017.7 -12.3-14.5 0.3
2018-Dec-09 18:00N 48°18' W 070°12'0 0.0 100 / 71019.3 -13.4-15.8
2018-Dec-09 17:00N 48°18' W 070°12'0 0.0 100 / 71021.0 -14.2-17.2
2018-Dec-09 16:00N 48°18' W 070°12'0 0.0 100 / 71022.9 -14.8-18.3
2018-Dec-09 15:00N 48°18' W 070°12'0 0.0 210 / 41025.1 -16.2-19.1
2018-Dec-09 14:00N 48°18' W 070°12'0 0.0 230 / 61026.1 -17.2-20.6
2018-Dec-09 13:00N 48°18' W 070°12'0 0.0 230 / 71026.9 -17.8-21.1
2018-Dec-09 12:00N 48°18' W 070°12'0 0.0 220 / 71027.1 -18.5-21.6
2018-Dec-09 11:00N 48°18' W 070°12'0 0.0 230 / 51027.7 -18.3-21.6 0.4
2018-Dec-09 10:00N 48°18' W 070°12'0 0.0 220 / 41028.2 -18.3-21.0
2018-Dec-09 09:00N 48°18' W 070°12'1313.4 310 / 81028.5 -17.2-20.7
2018-Dec-09 08:00N 48°12' W 069°54'7 7.2 310 / 211028.1 -16.0-19.6 0.1
2018-Dec-09 07:00N 48°06' W 069°48'1313.4 320 / 221028.6 -15.1-18.6 0.9
2018-Dec-09 06:00N 48°12' W 069°30'1212.0 300 / 211028.3 -14.0-17.8 1.0
2018-Dec-09 05:00N 48°12' W 069°12'0 0.0 300 / 161028.4 -13.2-17.4
2018-Dec-09 04:00N 48°12' W 069°12'0 0.0 300 / 111028.7 -12.6-18.2
2018-Dec-09 03:00N 48°12' W 069°12'0 0.0 320 / 131028.8 -12.1-19.2
2018-Dec-09 02:00N 48°12' W 069°12'0 0.0 300 / 171028.3 -12.5-17.0
2018-Dec-09 01:00N 48°12' W 069°12'0 0.0 300 / 161028.1 -12.3-17.2
2018-Dec-09 00:00N 48°12' W 069°12'0 0.0 290 / 151027.9 -12.4-16.1
2018-Dec-08 23:00N 48°12' W 069°12'0 0.0 300 / 111027.5 -12.8-16.1
2018-Dec-08 22:00N 48°12' W 069°12'0 0.0 300 / 121027.6 -12.9-16.2
2018-Dec-08 21:00N 48°12' W 069°12'0 0.0 290 / 191027.3 -13.2-16.9
2018-Dec-08 20:00N 48°12' W 069°12'0 0.0 280 / 181027.5 -13.2-17.2
2018-Dec-08 19:00N 48°12' W 069°12'0 0.0 280 / 131027.6 -13.2-18.2
2018-Dec-08 18:00N 48°12' W 069°12'0 0.0 280 / 111028.1 -13.8-18.2
2018-Dec-08 17:00N 48°12' W 069°12'0 0.0 280 / 101028.7 -14.1-18.4
2018-Dec-08 16:00N 48°12' W 069°12'0 0.0 290 / 111029.4 -14.4-19.0
2018-Dec-08 15:00N 48°12' W 069°12'0 0.0 300 / 151029.8 -14.4-18.6
2018-Dec-08 14:00N 48°12' W 069°12'0 0.0 310 / 171029.7 -14.3-18.3
2018-Dec-08 13:00N 48°12' W 069°12'0 0.0 310 / 171029.1 -14.0-17.2
2018-Dec-08 12:00N 48°12' W 069°12'0 0.0 310 / 151028.8 -13.8-17.3
2018-Dec-08 11:00N 48°12' W 069°12'0 0.0 310 / 151028.5 -13.5-17.6
2018-Dec-08 10:00N 48°12' W 069°12'0 0.0 320 / 151028.5 -13.1-17.9
2018-Dec-08 09:00N 48°12' W 069°12'0 0.0 320 / 171028.3 -12.8-17.8
2018-Dec-08 08:00N 48°12' W 069°12'0 0.0 320 / 161028.2 -12.5-17.9
2018-Dec-08 07:00N 48°12' W 069°12'0 0.0 320 / 161028.1 -12.3-17.3
2018-Dec-08 06:00N 48°12' W 069°12'0 0.0 330 / 161027.8 -11.9-17.1
2018-Dec-08 05:00N 48°12' W 069°12'0 0.0 320 / 161027.4 -11.7-17.2
2018-Dec-08 04:00N 48°12' W 069°12'0 0.0 310 / 161027.4 -11.1-16.1
2018-Dec-08 03:00N 48°12' W 069°12'0 0.0 310 / 151027.3 -10.8-16.0
2018-Dec-08 02:00N 48°12' W 069°12'0 0.0 310 / 161027.2 -10.5-15.7
2018-Dec-08 01:00N 48°12' W 069°12'0 0.0 290 / 151026.9 -10.3-14.6
2018-Dec-08 00:00N 48°12' W 069°12'0 0.0 290 / 181026.5 -10.2-14.3
2018-Dec-07 23:00N 48°12' W 069°12'0 0.0 300 / 171025.7 -9.5-15.6
2018-Dec-07 21:00N 48°12' W 069°12'0 0.0 310 / 221022.8 -8.2-12.3 1.2
2018-Dec-07 20:00N 48°12' W 069°12'0 0.0 300 / 221021.9 -7.9-11.7 1.2
2018-Dec-07 19:00N 48°12' W 069°12'1010.0 300 / 211021.0 -7.4-11.1 1.2
2018-Dec-07 18:00N 48°06' W 069°24'1010.0 280 / 261020.3 -7.8-11.3 1.0
2018-Dec-07 17:00N 48°00' W 069°36'7 7.2 310 / 271019.6 -7.8-12.1 0.4
2018-Dec-07 16:00N 47°54' W 069°30'0 0.0 340 / 31020.4 -6.3-9.5
2018-Dec-07 15:00N 47°54' W 069°30'0 0.0 330 / 81019.9 -6.0-9.0
2018-Dec-07 14:00N 47°54' W 069°30'0 0.0 330 / 91019.0 -5.7-8.3
2018-Dec-07 13:00N 47°54' W 069°30'0 0.0 330 / 71018.1 -5.0-7.3
2018-Dec-07 12:00N 47°54' W 069°30'0 0.0 330 / 101017.1 -3.8-4.6
2018-Dec-07 11:00N 47°54' W 069°30'0 0.0 060 / 21016.3 -5.3-5.7
2018-Dec-07 10:00N 47°54' W 069°30'0 0.0 160 / 31015.5 -4.8-5.4
2018-Dec-07 09:00N 47°54' W 069°30'0 0.0 140 / 31015.0 -5.0-5.9
2018-Dec-07 08:00N 47°54' W 069°30'0 0.0 150 / 51014.7 -5.1-6.4
2018-Dec-07 07:00N 47°54' W 069°30'0 0.0 150 / 61014.3 -5.3-6.9
2018-Dec-07 06:00N 47°54' W 069°30'0 0.0 170 / 81013.9 -4.9-6.1
2018-Dec-07 05:00N 47°54' W 069°30'0 0.0 170 / 71013.7 -4.2-5.5
2018-Dec-07 04:00N 47°54' W 069°30'0 0.0 210 / 131013.5 -3.5-4.7
2018-Dec-07 03:00N 47°54' W 069°30'0 0.0 220 / 131013.6 -3.4-4.1
2018-Dec-07 02:00N 47°54' W 069°30'0 0.0 180 / 81013.8 -4.3-5.3
2018-Dec-07 01:00N 47°54' W 069°30'0 0.0 190 / 91013.8 -4.0-5.1
2018-Dec-07 00:00N 47°54' W 069°30'0 0.0 180 / 81013.7 -4.6-6.0
2018-Dec-06 23:00N 47°54' W 069°30'0 0.0 180 / 91013.4 -4.8-6.3
2018-Dec-06 22:00N 47°54' W 069°30'0 0.0 180 / 91013.2 -5.0-6.1
2018-Dec-06 21:00N 47°54' W 069°30'0 0.0 190 / 121013.1 -4.9-6.4
2018-Dec-06 20:00N 47°54' W 069°30'0 0.0 170 / 81012.8 -5.5-7.1
2018-Dec-06 19:00N 47°54' W 069°30'0 0.0 190 / 111012.7 -5.7-7.4
2018-Dec-06 18:00N 47°54' W 069°30'0 0.0 190 / 121013.1 -5.7-7.9
2018-Dec-06 17:00N 47°54' W 069°30'0 0.0 180 / 111013.6 -6.3-8.8
2018-Dec-06 16:00N 47°54' W 069°30'0 0.0 190 / 131014.7 -6.5-8.8
2018-Dec-06 15:00N 47°54' W 069°30'0 0.0 150 / 71015.9 -8.1-11.2
2018-Dec-06 14:00N 47°54' W 069°30'0 0.0 170 / 71016.3 -8.6-11.5
2018-Dec-06 13:00N 47°54' W 069°30'0 0.0 170 / 81016.5 -8.6-11.5
2018-Dec-06 12:00N 47°54' W 069°30'0 0.0 170 / 101016.6 -9.2-12.1
2018-Dec-06 11:00N 47°54' W 069°30'0 0.0 160 / 61016.6 -9.3-11.9
2018-Dec-06 10:00N 47°54' W 069°30'0 0.0 170 / 81016.9 -8.7-11.1
2018-Dec-06 09:00N 47°54' W 069°30'0 0.0 170 / 91017.1 -8.9-11.0
2018-Dec-06 08:00N 47°54' W 069°30'0 0.0 190 / 111016.9 -7.9-10.1
2018-Dec-06 07:00N 47°54' W 069°30'0 0.0 160 / 71016.8 -8.9-11.3
2018-Dec-06 06:00N 47°54' W 069°30'0 0.0 140 / 71016.4 -9.0-11.4
2018-Dec-06 05:00N 47°54' W 069°30'0 0.0 150 / 71017.0 -8.6-11.2
2018-Dec-06 04:00N 47°54' W 069°30'0 0.0 140 / 71017.7 -9.2-11.9
2018-Dec-06 03:00N 47°54' W 069°30'0 0.0 140 / 71018.2 -9.1-12.1
2018-Dec-06 02:00N 47°54' W 069°30'0 0.0 150 / 51018.3 -8.8-11.8
2018-Dec-06 01:00N 47°54' W 069°30'0 0.0 170 / 81018.4 -7.9-11.2
2018-Dec-06 00:00N 47°54' W 069°30'0 0.0 180 / 101018.2 -7.0-10.5
2018-Dec-05 23:00N 47°54' W 069°30'0 0.0 170 / 81017.6 -7.7-10.8
2018-Dec-05 22:00N 47°54' W 069°30'0 0.0 170 / 91017.4 -7.1-10.9
2018-Dec-05 21:00N 47°54' W 069°30'0 0.0 180 / 101017.2 -6.6-10.8
2018-Dec-05 20:00N 47°54' W 069°30'0 0.0 180 / 101017.1 -5.7-10.2
2018-Dec-05 19:00N 47°54' W 069°30'0 0.0 200 / 111016.8 -5.4-10.6
2018-Dec-05 18:00N 47°54' W 069°30'0 0.0 200 / 71017.1 -5.5-11.2
2018-Dec-05 17:00N 47°54' W 069°30'0 0.0 230 / 61017.7 -5.6-11.7
2018-Dec-05 16:00N 47°54' W 069°30'0 0.0 310 / 21018.2 -5.2-11.2
2018-Dec-05 15:00N 47°54' W 069°30'0 0.0 290 / 51018.7 -6.4-11.8
2018-Dec-05 14:00N 47°54' W 069°30'0 0.0 340 / 21018.4 -6.5-11.1
2018-Dec-05 13:00N 47°54' W 069°30'0 0.0 320 / 41018.2 -6.7-11.6
2018-Dec-05 12:00N 47°54' W 069°30'0 0.0 330 / 31017.9 -7.2-11.6
2018-Dec-05 11:00N 47°54' W 069°30'0 0.0 320 / 31017.2 -6.6-11.1
2018-Dec-05 10:00N 47°54' W 069°30'0 0.0 320 / 41016.8 -6.5-11.3
2018-Dec-05 09:00N 47°54' W 069°30'0 0.0 300 / 61016.5 -6.1-10.7
2018-Dec-05 08:00N 47°54' W 069°30'0 0.0 330 / 31016.0 -5.7-11.3
2018-Dec-05 07:00N 47°54' W 069°30'0 0.0 330 / 31015.8 -5.6-11.9
2018-Dec-05 06:00N 47°54' W 069°30'0 0.0 330 / 21015.2 -5.4-10.8
2018-Dec-05 05:00N 47°54' W 069°30'0 0.0 340 / 31014.8 -5.3-10.8
2018-Dec-05 04:00N 47°54' W 069°30'0 0.0 330 / 31014.5 -5.3-10.6
2018-Dec-05 03:00N 47°54' W 069°30'0 0.0 340 / 41014.4 -5.4-11.2
2018-Dec-05 02:00N 47°54' W 069°30'0 0.0 330 / 51014.4 -5.4-11.7
2018-Dec-05 01:00N 47°54' W 069°30'0 0.0 330 / 91014.1 -5.5-12.4
2018-Dec-05 00:00N 47°54' W 069°30'0 0.0 330 / 101013.6 -5.7-13.1
2018-Dec-04 23:00N 47°54' W 069°30'0 0.0 330 / 81012.8 -5.8-12.6
2018-Dec-04 22:00N 47°54' W 069°30'17 8.5 330 / 81012.0 -5.5-12.2
2018-Dec-04 20:00N 47°42' W 069°48'1717.1 310 / 151010.8 -6.1-14.0 0.8
2018-Dec-04 19:00N 47°30' W 070°06'1010.1 300 / 211010.2 -6.0-14.2 1.0
2018-Dec-04 18:00N 47°24' W 070°18'1010.1 290 / 121010.4 -5.8-14.0 1.1
2018-Dec-04 17:00N 47°18' W 070°30'7 7.3 320 / 121010.4 -5.3-14.6 1.1
2018-Dec-04 16:00N 47°12' W 070°36'2019.8 320 / 81011.3 -5.4-14.2 1.9
2018-Dec-04 15:00N 46°54' W 070°48'1415.0 280 / 121012.2 -5.5-13.4 2.7
2018-Dec-04 14:04N 46°50' W 071°08'114.2
2018-Dec-04 14:00N 46°50' W 071°09'3358.8
2018-Dec-04 14:00N 46°48' W 071°12'0 0.9 290 / 181011.9 -5.4-12.5 2.7
2018-Dec-04 13:29N 46°48' W 071°12'0 0.9
2018-Dec-04 13:00N 46°48' W 071°12'0 0.9 030 / 61011.2 -4.2-10.7
2018-Dec-04 12:29N 46°48' W 071°12'0 0.9
2018-Dec-04 12:00N 46°48' W 071°12'0 0.9 190 / 21010.3 -4.5-9.4
2018-Dec-04 11:29N 46°48' W 071°12'0 0.9
2018-Dec-04 11:00N 46°48' W 071°12'057.2 140 / 21009.4 -4.1-8.5
2018-Dec-04 10:59N 46°48' W 071°12'0 0.4
2018-Dec-04 10:00N 46°48' W 071°12'047.1 130 / 11008.5 -3.9-8.0
2018-Dec-04 09:59N 46°48' W 071°12'0 0.4
2018-Dec-04 09:00N 46°48' W 071°12'027.1 200 / 51007.8 -3.4-7.7
2018-Dec-04 08:59N 46°48' W 071°12'0 0.5
2018-Dec-04 08:00N 46°48' W 071°12'0 6.1 200 / 41007.3 -3.1-7.8
2018-Dec-04 07:55N 46°48' W 071°12'0 0.0
2018-Dec-04 07:28N 46°48' W 071°12'0 0.9
2018-Dec-04 07:00N 46°48' W 071°12'0 0.0 210 / 31006.5 -2.7-7.5
2018-Dec-04 06:00N 46°48' W 071°12'0 0.6 040 / 41005.7 -2.6-7.2
2018-Dec-04 05:16N 46°48' W 071°12'0 1.6
2018-Dec-04 05:00N 46°48' W 071°12'0 2.0 030 / 61005.1 -1.8-6.1
2018-Dec-04 04:46N 46°48' W 071°12'0 0.6
2018-Dec-04 04:00N 46°48' W 071°12'019.5 150 / 21004.5 -1.2-5.1
2018-Dec-04 03:58N 46°48' W 071°12'0 0.5
2018-Dec-04 03:00N 46°48' W 071°12'015.4 210 / 61004.0 -1.4-5.1
2018-Dec-04 02:58N 46°48' W 071°12'0 0.0
2018-Dec-04 02:15N 46°48' W 071°12'0 1.7
2018-Dec-04 02:00N 46°48' W 071°12'0 0.7 210 / 61003.8 -1.5-5.9
2018-Dec-04 01:21N 46°48' W 071°12'0 1.2
2018-Dec-04 01:00N 46°48' W 071°12'0 0.0 200 / 51003.5 -2.1-6.0
2018-Dec-04 00:00N 46°48' W 071°12'0 0.0 020 / 61002.7 -2.3-5.6
2018-Dec-03 23:00N 46°48' W 071°12'0 0.0 040 / 41001.4 -2.0-5.2
2018-Dec-03 22:00N 46°48' W 071°12'0 3.0 030 / 61000.3 -0.6-3.1
2018-Dec-03 21:51N 46°48' W 071°12'0 0.0
2018-Dec-03 21:09N 46°48' W 071°12'0 2.9
2018-Dec-03 21:00N 46°48' W 071°12'0 0.6 030 / 3999.0 -0.4-0.5
2018-Dec-03 20:17N 46°48' W 071°12'0 1.5
2018-Dec-03 20:00N 46°48' W 071°12'0 1.5 030 / 2998.1 -0.4-0.5
2018-Dec-03 19:41N 46°48' W 071°12'0 0.6
2018-Dec-03 19:00N 46°48' W 071°12'0 2.1 030 / 1997.5 -0.1-0.2
2018-Dec-03 18:47N 46°48' W 071°12'0 0.6
2018-Dec-03 18:00N 46°48' W 071°12'0 0.5 030 / 4997.3 -0.3-0.4
2018-Dec-03 17:02N 46°48' W 071°12'012.5
2018-Dec-03 17:00N 46°48' W 071°12'0 1.7 030 / 5997.4 -0.2-0.3
2018-Dec-03 16:44N 46°48' W 071°12'0 0.6
2018-Dec-03 16:00N 46°48' W 071°12'0 0.9 040 / 5997.5 -0.1-0.1
2018-Dec-03 15:28N 46°48' W 071°12'0 0.9
2018-Dec-03 15:00N 46°48' W 071°12'0 0.0 030 / 4997.5 -0.2-0.2
2018-Dec-03 14:00N 46°48' W 071°12'0 0.8 997.3 -0.4-0.4
2018-Dec-03 13:28N 46°48' W 071°12'0 0.9
2018-Dec-03 13:00N 46°48' W 071°12'0 0.0 996.5 -0.5-0.5
2018-Dec-03 12:00N 46°48' W 071°12'0 0.0 996.8 -0.7-0.7
2018-Dec-03 11:00N 46°48' W 071°12'0 0.0 997.2 -0.8-0.8
2018-Dec-03 10:00N 46°48' W 071°12'0 0.7 997.8 -0.7-0.7
2018-Dec-03 09:21N 46°48' W 071°12'0 1.3
2018-Dec-03 09:00N 46°48' W 071°12'0 0.7 998.0 -0.8-0.8
2018-Dec-03 08:24N 46°48' W 071°12'0 1.1
2018-Dec-03 08:00N 46°48' W 071°12'0 0.8 998.2 -0.7-0.8
2018-Dec-03 07:26N 46°48' W 071°12'0 1.0
2018-Dec-03 07:00N 46°48' W 071°12'0 0.0 998.6 -0.6-0.7
2018-Dec-03 06:00N 46°48' W 071°12'0 0.6 030 / 1999.2 -0.6-0.6
2018-Dec-03 05:11N 46°48' W 071°12'0 2.3
2018-Dec-03 05:00N 46°48' W 071°12'0 0.0 040 / 2999.6 -0.6-0.7
2018-Dec-03 04:00N 46°48' W 071°12'0 0.0 040 / 21000.3 -0.6-0.7
2018-Dec-03 03:00N 46°48' W 071°12'0 0.7 040 / 31001.0 -0.6-0.7
2018-Dec-03 02:20N 46°48' W 071°12'0 1.3
2018-Dec-03 02:00N 46°48' W 071°12'0 0.7 040 / 31001.7 -0.7-0.8
2018-Dec-03 01:23N 46°48' W 071°12'0 1.1
2018-Dec-03 01:00N 46°48' W 071°12'030.8 040 / 31002.3 -0.5-0.7
2018-Dec-03 00:59N 46°48' W 071°12'0 0.0
2018-Dec-03 00:25N 46°48' W 071°12'0 1.0
2018-Dec-03 00:00N 46°48' W 071°12'0 0.8 040 / 71003.4 -0.7-1.0
2018-Dec-02 23:25N 46°48' W 071°12'0 1.0
2018-Dec-02 23:00N 46°48' W 071°12'0 1.1 040 / 61004.6 -0.6-1.2
2018-Dec-02 22:34N 46°48' W 071°12'0 0.8
2018-Dec-02 22:00N 46°48' W 071°12'0 2.0 040 / 51005.8 -0.6-1.0
2018-Dec-02 21:46N 46°48' W 071°12'0 0.0
2018-Dec-02 21:28N 46°48' W 071°12'0 0.9
2018-Dec-02 21:00N 46°48' W 071°12'0 2.0 040 / 61006.2 -0.8-1.3
2018-Dec-02 20:46N 46°48' W 071°12'0 0.0
2018-Dec-02 20:25N 46°48' W 071°12'0 1.1
2018-Dec-02 20:00N 46°48' W 071°12'0 0.0 040 / 61007.1 -1.0-1.4
2018-Dec-02 19:00N 46°48' W 071°12'0 1.9 040 / 141008.5 -1.3-2.0
2018-Dec-02 18:46N 46°48' W 071°12'0 0.6
2018-Dec-02 18:00N 46°48' W 071°12'0 0.6 040 / 161010.4 -1.3-2.0
2018-Dec-02 17:12N 46°48' W 071°12'0 2.1
2018-Dec-02 17:00N 46°48' W 071°12'0 5.2 040 / 161012.8 -1.7-2.4
2018-Dec-02 16:54N 46°48' W 071°12'0 0.0
2018-Dec-02 16:12N 46°48' W 071°12'0 2.1
2018-Dec-02 16:00N 46°48' W 071°12'0 2.3 040 / 151015.0 -1.8-2.5
2018-Dec-02 15:48N 46°48' W 071°12'0 0.0
2018-Dec-02 15:12N 46°48' W 071°12'0 2.1
2018-Dec-02 15:00N 46°48' W 071°12'0 1.0 040 / 121016.8 -1.8-2.6
2018-Dec-02 14:33N 46°48' W 071°12'0 0.0
2018-Dec-02 14:27N 46°48' W 071°12'0 1.0
2018-Dec-02 14:00N 46°48' W 071°12'0 0.6 040 / 151017.8 -1.9-3.0
2018-Dec-02 13:15N 46°48' W 071°12'0 1.8
2018-Dec-02 13:00N 46°48' W 071°12'0 9.1 040 / 121018.9 -1.9-3.6
2018-Dec-02 12:57N 46°48' W 071°12'0 0.0
2018-Dec-02 12:17N 46°48' W 071°12'0 1.5
2018-Dec-02 12:00N 46°48' W 071°12'0 2.1 040 / 131019.7 -1.7-4.0
2018-Dec-02 11:47N 46°48' W 071°12'0 0.0
2018-Dec-02 11:14N 46°48' W 071°12'0 1.9
2018-Dec-02 11:00N 46°48' W 071°12'0 1.7 050 / 71020.6 -1.9-4.0
2018-Dec-02 10:44N 46°48' W 071°12'0 0.0
2018-Dec-02 10:26N 46°48' W 071°12'0 1.0
2018-Dec-02 10:00N 46°48' W 071°12'0 2.0 050 / 61021.2 -2.1-4.5
2018-Dec-02 09:46N 46°48' W 071°12'0 0.0
2018-Dec-02 09:16N 46°48' W 071°12'0 1.6
2018-Dec-02 09:00N 46°48' W 071°12'0 5.8 100 / 31021.5 -2.1-4.2
2018-Dec-02 08:55N 46°48' W 071°12'0 0.0
2018-Dec-02 08:22N 46°48' W 071°12'0 1.2
2018-Dec-02 08:00N 46°48' W 071°12'014.2 080 / 41021.7 -2.1-4.1
2018-Dec-02 07:58N 46°48' W 071°12'0 0.0
2018-Dec-02 07:01N 46°48' W 071°12'023.9
2018-Dec-02 07:00N 46°48' W 071°12'0 0.9 100 / 51022.0 -2.0-4.0
2018-Dec-02 06:31N 46°48' W 071°12'0 0.0
2018-Dec-02 06:28N 46°48' W 071°12'0 0.9
2018-Dec-02 06:00N 46°48' W 071°12'0 0.8 120 / 41022.4 -1.8-4.2
2018-Dec-02 05:27N 46°48' W 071°12'0 1.0
2018-Dec-02 05:00N 46°48' W 071°12'012.2 130 / 41022.8 -1.6-4.0
2018-Dec-02 04:57N 46°48' W 071°12'0 0.5
2018-Dec-02 04:00N 46°48' W 071°12'0 1.6 150 / 51022.9 -1.4-4.0
2018-Dec-02 03:42N 46°48' W 071°12'0 0.6
2018-Dec-02 03:00N 46°48' W 071°12'0 0.5 220 / 41023.5 -0.9-3.6
2018-Dec-02 02:03N 46°48' W 071°12'0 7.5
2018-Dec-02 02:00N 46°48' W 071°12'0 3.1 230 / 51024.1 -0.9-3.5
2018-Dec-02 01:51N 46°48' W 071°12'0 0.0
2018-Dec-02 01:03N 46°48' W 071°12'0 0.0
2018-Dec-02 01:00N 46°48' W 071°12'049.9
2018-Dec-02 01:00N 46°48' W 071°12'0 0.8 210 / 41024.1 -0.8-3.5
2018-Dec-02 00:27N 46°48' W 071°12'0 1.0
2018-Dec-02 00:00N 46°48' W 071°12'0 1.3 210 / 41024.1 -0.8-3.5
2018-Dec-01 23:39N 46°48' W 071°12'0 0.0
2018-Dec-01 23:30N 46°48' W 071°12'0 0.9
2018-Dec-01 23:00N 46°48' W 071°12'0 0.0 220 / 51024.1 -0.7-3.9
2018-Dec-01 22:00N 46°48' W 071°12'0 1.5 210 / 41023.7 -0.7-4.2
2018-Dec-01 21:41N 46°48' W 071°12'0 0.0
2018-Dec-01 21:23N 46°48' W 071°12'0 1.1
2018-Dec-01 21:00N 46°48' W 071°12'0 8.0 220 / 61023.4 -0.8-4.6
2018-Dec-01 20:56N 46°48' W 071°12'0 0.0
2018-Dec-01 20:26N 46°48' W 071°12'0 0.0
2018-Dec-01 19:26N 46°48' W 071°12'0 1.0
2018-Dec-01 19:00N 46°48' W 071°12'0 1.3 210 / 71021.8 -0.4-5.0
2018-Dec-01 18:38N 46°48' W 071°12'0 0.0
2018-Dec-01 18:30N 46°48' W 071°12'0 0.9
2018-Dec-01 18:00N 46°48' W 071°12'0 0.7 210 / 61021.7 -1.0-5.1
2018-Dec-01 17:21N 46°48' W 071°12'0 1.3
2018-Dec-01 17:00N 46°48' W 071°12'0 1.1 200 / 61022.1 -1.2-5.1
2018-Dec-01 16:36N 46°48' W 071°12'0 0.0
2018-Dec-01 16:30N 46°48' W 071°12'0 0.9
2018-Dec-01 16:00N 46°48' W 071°12'0177.8 200 / 61022.7 -1.4-5.3
2018-Dec-01 15:59N 46°48' W 071°12'0 0.4
2018-Dec-01 15:00N 46°48' W 071°12'0 2.8 200 / 71023.5 -1.6-5.4
2018-Dec-01 14:50N 46°48' W 071°12'0 0.0
2018-Dec-01 14:23N 46°48' W 071°12'0 1.1
2018-Dec-01 14:00N 46°48' W 071°12'0 1.0 200 / 71023.6 -1.8-5.6
2018-Dec-01 13:32N 46°48' W 071°12'0 0.8
2018-Dec-01 13:00N 46°48' W 071°12'0 0.5 190 / 31022.3 -1.9-6.1
2018-Dec-01 12:08N 46°48' W 071°12'0 3.2
2018-Dec-01 12:00N 46°48' W 071°12'0 2.7 210 / 21021.4 -1.8-5.4
2018-Dec-01 11:50N 46°48' W 071°12'0 0.0
2018-Dec-01 11:26N 46°48' W 071°12'0 1.0
2018-Dec-01 11:00N 46°48' W 071°12'0 3.9 200 / 41020.9 -1.9-5.5
2018-Dec-01 10:53N 46°48' W 071°12'0 0.0
2018-Dec-01 10:26N 46°48' W 071°12'0 1.0
2018-Dec-01 10:00N 46°48' W 071°12'0 0.8 190 / 41020.6 -2.0-6.2
2018-Dec-01 09:26N 46°48' W 071°12'0 1.0
2018-Dec-01 09:00N 46°48' W 071°12'0 6.7 190 / 41020.3 -2.0-6.3
2018-Dec-01 08:56N 46°48' W 071°12'0 0.0
2018-Dec-01 08:19N 46°48' W 071°12'0 1.3
2018-Dec-01 08:00N 46°48' W 071°12'0 0.5 190 / 41019.9 -2.0-6.2
2018-Dec-01 07:10N 46°48' W 071°12'0 2.5
2018-Dec-01 07:00N 46°48' W 071°12'0 1.1 190 / 41019.7 -2.0-6.1
2018-Dec-01 06:34N 46°48' W 071°12'0 0.0
2018-Dec-01 06:07N 46°48' W 071°12'0 3.5
2018-Dec-01 06:00N 46°48' W 071°12'0 0.7 190 / 41019.3 -1.8-5.8
2018-Dec-01 05:22N 46°48' W 071°12'0 1.2
2018-Dec-01 05:00N 46°48' W 071°12'0 1.6 190 / 51019.0 -1.5-5.7
2018-Dec-01 04:43N 46°48' W 071°12'0 0.6
2018-Dec-01 04:00N 46°48' W 071°12'0 0.9 210 / 41018.7 -1.2-5.6
2018-Dec-01 03:31N 46°48' W 071°12'0 0.0
2018-Dec-01 03:28N 46°48' W 071°12'0 0.9
2018-Dec-01 03:00N 46°48' W 071°12'016.3 160 / 11018.4 -1.3-5.6
2018-Dec-01 02:58N 46°48' W 071°12'0 0.0
2018-Dec-01 02:25N 46°48' W 071°12'0 1.1
2018-Dec-01 02:00N 46°48' W 071°12'015.0 190 / 51018.4 -1.2-5.4
2018-Dec-01 01:58N 46°48' W 071°12'0 0.5
2018-Dec-01 01:00N 46°48' W 071°12'0 2.4 190 / 41018.5 -0.8-5.3
2018-Dec-01 00:48N 46°48' W 071°12'0 0.2
2018-Nov-30 23:00N 46°48' W 071°12'0 9.0 190 / 71017.9 -0.8-4.7 2.2
2018-Nov-30 22:57N 46°48' W 071°12'0 0.0
2018-Nov-30 22:23N 46°48' W 071°12'0 1.1
2018-Nov-30 22:00N 46°48' W 071°12'0 0.8 200 / 51017.7 -0.7-4.6 2.2
2018-Nov-30 21:26N 46°48' W 071°12'0 1.0
2018-Nov-30 21:00N 46°48' W 071°12'0 5.3 220 / 61017.4 -0.6-4.6 2.2
2018-Nov-30 20:54N 46°48' W 071°12'0 0.1
2018-Nov-30 20:30N 46°48' W 071°12'4 8.2
2018-Nov-30 20:00N 46°48' W 071°06'346.5 260 / 101016.4 -0.4-4.4 2.1
2018-Nov-30 19:56N 46°51' W 071°08'1011.0
2018-Nov-30 19:00N 46°54' W 070°54'1514.5 240 / 131015.9 -0.4-4.8 1.8
2018-Nov-30 18:00N 47°06' W 070°42'7 7.3 250 / 61016.1 -1.0-4.0 1.2
2018-Nov-30 17:00N 47°12' W 070°36'7 7.3 090 / 21016.2 -1.8-4.0 1.1
2018-Nov-30 16:00N 47°06' W 070°42'1514.5 190 / 31016.5 -1.3-4.4 1.7
2018-Nov-30 15:00N 46°54' W 070°54'1011.6 240 / 21016.8 -1.3-4.4 2.2
2018-Nov-30 14:07N 46°50' W 071°08'431.0
2018-Nov-30 14:00N 46°48' W 071°12'3172.6 310 / 41016.8 -2.7-6.5 2.1
2018-Nov-30 13:59N 46°50' W 071°10'2 2.0
2018-Nov-30 12:47N 46°48' W 071°12'0 0.6
2018-Nov-30 12:00N 46°48' W 071°12'0 1.3 350 / 41016.3 -2.5-6.0
2018-Nov-30 11:37N 46°48' W 071°12'0 0.0
2018-Nov-30 11:19N 46°48' W 071°12'0 0.0
2018-Nov-30 10:52N 46°48' W 071°12'0 0.0
2018-Nov-30 10:25N 46°48' W 071°12'0 0.0
2018-Nov-30 09:52N 46°48' W 071°12'0 0.0
2018-Nov-30 09:13N 46°48' W 071°12'0 0.0
2018-Nov-30 07:58N 46°48' W 071°12'0 0.2
2018-Nov-30 06:00N 46°48' W 071°12'   340 / 51013.4 -0.4-3.9

Dump ship's entire track history